Time;durP1;ratioP1;P1;durP2;ratioP2;P2;SDS_P1;SDS_P2;PMS_P1;PMS_P2;Temp;Humidity;BMP_temperature;BMP_pressure;BME280_temperature;BME280_humidity;BME280_pressure;Samples;Min_cycle;Max_cycle;Signal;HPM_P1;HPM_P2
2021/01/25 00:00:29;;;;;;;;;;;0.90;91.20;;;;;;5033618;28;19905;-78
2021/01/25 00:02:55;;;;;;;;;;;0.90;91.20;;;;;;5032695;28;19955;-78
2021/01/25 00:05:20;;;;;;;;;;;0.90;91.30;;;;;;5033091;28;20365;-78
2021/01/25 00:07:47;;;;;;;;;;;0.90;91.30;;;;;;5034876;28;19966;-80
2021/01/25 00:10:13;;;;;;;;;;;0.90;91.30;;;;;;5036354;28;20016;-77
2021/01/25 00:12:38;;;;;;;;;;;0.90;91.40;;;;;;5051636;28;19952;-79
2021/01/25 00:15:05;;;;;;;;;;;0.90;91.40;;;;;;5016025;28;19916;-78
2021/01/25 00:17:31;;;;;;;;;;;0.90;91.40;;;;;;5033002;28;19915;-77
2021/01/25 00:19:56;;;;;;;;;;;0.90;91.50;;;;;;5032036;28;19909;-78
2021/01/25 00:22:22;;;;;;;;;;;0.80;91.60;;;;;;5051040;28;19905;-78
2021/01/25 00:24:48;;;;;;;;;;;0.90;91.60;;;;;;5049987;28;19905;-83
2021/01/25 00:27:14;;;;;;;;;;;0.90;91.60;;;;;;5031942;28;20011;-77
2021/01/25 00:29:39;;;;;;;;;;;0.80;91.70;;;;;;5050541;28;20288;-77
2021/01/25 00:32:06;;;;;;;;;;;0.80;91.70;;;;;;5027823;28;606852;-77
2021/01/25 00:34:31;;;;;;;;;;;0.80;91.80;;;;;;5050055;28;19994;-77
2021/01/25 00:36:57;;;;;;;;;;;0.80;91.80;;;;;;5048894;28;19955;-77
2021/01/25 00:39:22;;;;;;;;;;;0.90;91.80;;;;;;5051414;28;19999;-77
2021/01/25 00:41:48;;;;;;;;;;;0.90;91.80;;;;;;5051214;28;19916;-77
2021/01/25 00:44:14;;;;;;;;;;;0.90;91.80;;;;;;5032462;28;19923;-77
2021/01/25 00:46:39;;;;;;;;;;;1.00;91.80;;;;;;5050776;28;20315;-76
2021/01/25 00:49:05;;;;;;;;;;;0.90;91.70;;;;;;5031882;28;19966;-76
2021/01/25 00:51:30;;;;;;;;;;;0.80;91.80;;;;;;5051039;28;19924;-77
2021/01/25 00:53:56;;;;;;;;;;;0.80;91.80;;;;;;5032386;28;19909;-77
2021/01/25 00:56:22;;;;;;;;;;;0.80;91.90;;;;;;5050598;28;20622;-76
2021/01/25 00:58:47;;;;;;;;;;;0.90;91.90;;;;;;5033182;28;19909;-76
2021/01/25 01:01:13;;;;;;;;;;;1.00;91.90;;;;;;5016387;28;20558;-77
2021/01/25 01:03:38;;;;;;;;;;;0.90;91.90;;;;;;5033695;28;19908;-76
2021/01/25 01:06:04;;;;;;;;;;;0.90;91.90;;;;;;5032582;28;20269;-76
2021/01/25 01:08:29;;;;;;;;;;;0.90;91.90;;;;;;5049895;28;19913;-77
2021/01/25 01:10:55;;;;;;;;;;;0.90;91.90;;;;;;5032693;28;19909;-83
2021/01/25 01:13:20;;;;;;;;;;;0.80;92.00;;;;;;5033719;28;19943;-76
2021/01/25 01:15:46;;;;;;;;;;;0.80;92.00;;;;;;5049468;28;20022;-76
2021/01/25 01:18:11;;;;;;;;;;;0.80;92.00;;;;;;5050439;28;20345;-76
2021/01/25 01:20:37;;;;;;;;;;;0.80;92.10;;;;;;5033318;28;19912;-76
2021/01/25 01:23:02;;;;;;;;;;;0.90;92.10;;;;;;5050600;28;19920;-76
2021/01/25 01:25:28;;;;;;;;;;;1.00;92.10;;;;;;5050839;28;19912;-75
2021/01/25 01:27:53;;;;;;;;;;;1.10;92.00;;;;;;5051094;28;19924;-75
2021/01/25 01:30:19;;;;;;;;;;;1.10;91.90;;;;;;5050756;28;19909;-76
2021/01/25 01:32:45;;;;;;;;;;;1.10;91.90;;;;;;5050158;28;19921;-76
2021/01/25 01:35:10;;;;;;;;;;;1.10;91.90;;;;;;5050403;28;20404;-75
2021/01/25 01:37:36;;;;;;;;;;;1.00;91.90;;;;;;5033806;28;19915;-75
2021/01/25 01:40:03;;;;;;;;;;;1.00;92.00;;;;;;5033622;28;20331;-77
2021/01/25 01:42:29;;;;;;;;;;;0.90;92.10;;;;;;5033678;28;19909;-76
2021/01/25 01:44:54;;;;;;;;;;;1.00;92.00;;;;;;5034108;28;19919;-76
2021/01/25 01:47:21;;;;;;;;;;;1.00;92.00;;;;;;5050715;28;19905;-76
2021/01/25 01:49:50;;;;;;;;;;;1.00;92.00;;;;;;5033838;28;19924;-77
2021/01/25 01:52:15;;;;;;;;;;;1.10;92.00;;;;;;5033011;28;20004;-76
2021/01/25 01:54:42;;;;;;;;;;;1.20;91.90;;;;;;5033923;28;20333;-76
2021/01/25 01:57:07;;;;;;;;;;;1.20;91.90;;;;;;5032983;28;19995;-76
2021/01/25 01:59:33;;;;;;;;;;;1.10;91.90;;;;;;5034832;28;20004;-76
2021/01/25 02:01:58;;;;;;;;;;;1.10;91.90;;;;;;5037238;28;19916;-77
2021/01/25 02:04:24;;;;;;;;;;;1.10;91.90;;;;;;5016347;28;19928;-77
2021/01/25 02:06:50;;;;;;;;;;;1.10;91.90;;;;;;5034659;28;19916;-76
2021/01/25 02:09:16;;;;;;;;;;;1.10;91.90;;;;;;5034313;28;19924;-74
2021/01/25 02:11:42;;;;;;;;;;;1.20;91.80;;;;;;5043640;28;19966;-75
2021/01/25 02:14:08;;;;;;;;;;;1.20;91.80;;;;;;5036106;28;19916;-76
2021/01/25 02:16:36;;;;;;;;;;;1.20;91.70;;;;;;5054854;28;20379;-76
2021/01/25 02:19:02;;;;;;;;;;;1.20;91.70;;;;;;5054669;28;19905;-83
2021/01/25 02:21:29;;;;;;;;;;;1.20;91.70;;;;;;5051555;28;19928;-76
2021/01/25 02:24:01;;;;;;;;;;;1.20;91.60;;;;;;5034844;28;19927;-77
2021/01/25 02:26:45;;;;;;;;;;;1.20;91.70;;;;;;5053283;28;19915;-78
2021/01/25 02:29:11;;;;;;;;;;;1.20;91.70;;;;;;5052454;28;20074;-76
2021/01/25 02:31:37;;;;;;;;;;;1.20;91.70;;;;;;5035403;28;20046;-76
2021/01/25 02:34:02;;;;;;;;;;;1.20;91.60;;;;;;5035786;28;19917;-77
2021/01/25 02:36:29;;;;;;;;;;;1.20;91.60;;;;;;5035407;28;19984;-77
2021/01/25 02:38:55;;;;;;;;;;;1.30;91.60;;;;;;5036048;28;20054;-74
2021/01/25 02:41:22;;;;;;;;;;;1.30;91.60;;;;;;5053102;28;20702;-76
2021/01/25 02:43:49;;;;;;;;;;;1.30;91.50;;;;;;5053277;28;20276;-76
2021/01/25 02:46:15;;;;;;;;;;;1.40;91.50;;;;;;5053099;28;19913;-73
2021/01/25 02:48:40;;;;;;;;;;;1.30;91.50;;;;;;5035445;28;20433;-74
2021/01/25 02:51:06;;;;;;;;;;;1.40;91.50;;;;;;5034762;28;19916;-82
2021/01/25 02:53:31;;;;;;;;;;;1.40;91.50;;;;;;5052891;28;20303;-76
2021/01/25 02:55:59;;;;;;;;;;;1.40;91.40;;;;;;5053520;28;20303;-75
2021/01/25 02:58:25;;;;;;;;;;;1.40;91.40;;;;;;5035160;28;19951;-77
2021/01/25 03:00:50;;;;;;;;;;;1.60;91.50;;;;;;5053139;28;19955;-75
2021/01/25 03:03:16;;;;;;;;;;;1.60;91.40;;;;;;5053037;28;20341;-74
2021/01/25 03:05:42;;;;;;;;;;;1.60;91.30;;;;;;5053275;28;19928;-74
2021/01/25 03:08:08;;;;;;;;;;;1.70;91.30;;;;;;5035293;28;19909;-79
2021/01/25 03:10:33;;;;;;;;;;;1.60;91.20;;;;;;5049956;28;20384;-73
2021/01/25 03:13:00;;;;;;;;;;;1.50;91.30;;;;;;5051743;28;20410;-73
2021/01/25 03:15:26;;;;;;;;;;;1.40;91.20;;;;;;5051320;28;19909;-76
2021/01/25 03:17:51;;;;;;;;;;;1.40;91.30;;;;;;5035086;28;19913;-76
2021/01/25 03:20:17;;;;;;;;;;;1.50;91.40;;;;;;5052197;28;19912;-74
2021/01/25 03:22:42;;;;;;;;;;;1.50;91.40;;;;;;5052773;28;19916;-75
2021/01/25 03:25:08;;;;;;;;;;;1.50;91.30;;;;;;5034589;28;20023;-74
2021/01/25 03:27:34;;;;;;;;;;;1.40;91.30;;;;;;5034702;28;19917;-75
2021/01/25 03:29:59;;;;;;;;;;;1.40;91.30;;;;;;5052810;28;20249;-73
2021/01/25 03:32:25;;;;;;;;;;;1.30;91.30;;;;;;5047654;28;20388;-75
2021/01/25 03:34:50;;;;;;;;;;;1.40;91.30;;;;;;5048602;28;19915;-76
2021/01/25 03:37:16;;;;;;;;;;;1.30;91.30;;;;;;5047626;28;19912;-75
2021/01/25 03:39:41;;;;;;;;;;;1.30;91.30;;;;;;5031501;28;19917;-73
2021/01/25 03:42:07;;;;;;;;;;;1.30;91.30;;;;;;5048139;28;19909;-73
2021/01/25 03:44:32;;;;;;;;;;;1.40;91.40;;;;;;5047424;28;19911;-75
2021/01/25 03:46:58;;;;;;;;;;;1.40;91.30;;;;;;5032994;28;20353;-75
2021/01/25 03:49:23;;;;;;;;;;;1.40;91.30;;;;;;5031721;28;20665;-75
2021/01/25 03:51:49;;;;;;;;;;;1.40;91.30;;;;;;5047428;28;19928;-75
2021/01/25 03:54:14;;;;;;;;;;;1.40;91.30;;;;;;5030990;28;20016;-79
2021/01/25 03:56:40;;;;;;;;;;;1.50;91.30;;;;;;5030929;28;19913;-73
2021/01/25 03:59:06;;;;;;;;;;;1.70;91.30;;;;;;5032478;28;19909;-73
2021/01/25 04:01:31;;;;;;;;;;;1.70;91.30;;;;;;5030314;28;20289;-73
2021/01/25 04:03:57;;;;;;;;;;;1.80;91.30;;;;;;5030417;28;19913;-74
2021/01/25 04:06:22;;;;;;;;;;;1.80;91.30;;;;;;5046678;28;20005;-74
2021/01/25 04:08:48;;;;;;;;;;;1.80;91.20;;;;;;5047021;28;19920;-74
2021/01/25 04:11:14;;;;;;;;;;;1.80;91.20;;;;;;5031628;28;20424;-74
2021/01/25 04:13:39;;;;;;;;;;;1.90;91.20;;;;;;5031261;28;19909;-74
2021/01/25 04:16:05;;;;;;;;;;;1.90;91.10;;;;;;5014062;28;20391;-74
2021/01/25 04:18:30;;;;;;;;;;;2.00;91.10;;;;;;5029911;28;19978;-74
2021/01/25 04:20:56;;;;;;;;;;;2.20;91.20;;;;;;5030202;28;19920;-74
2021/01/25 04:23:21;;;;;;;;;;;2.30;91.10;;;;;;5029826;28;19949;-75
2021/01/25 04:25:47;;;;;;;;;;;2.40;91.10;;;;;;5030868;28;19909;-74
2021/01/25 04:28:12;;;;;;;;;;;2.30;90.90;;;;;;5031785;28;19913;-74
2021/01/25 04:30:38;;;;;;;;;;;2.30;90.80;;;;;;5030001;28;19944;-74
2021/01/25 04:33:04;;;;;;;;;;;2.20;90.80;;;;;;5030554;28;19929;-75
2021/01/25 04:35:30;;;;;;;;;;;2.20;90.80;;;;;;5029214;28;19913;-75
2021/01/25 04:37:55;;;;;;;;;;;2.20;90.80;;;;;;5030450;28;20444;-74
2021/01/25 04:40:21;;;;;;;;;;;2.10;90.80;;;;;;5029533;28;20012;-81
2021/01/25 04:42:47;;;;;;;;;;;2.10;90.80;;;;;;5030025;28;19913;-74
2021/01/25 04:45:13;;;;;;;;;;;2.10;90.80;;;;;;5030295;28;20011;-74
2021/01/25 04:47:44;;;;;;;;;;;2.10;90.80;;;;;;5029052;28;19909;-74
2021/01/25 04:50:10;;;;;;;;;;;2.00;90.70;;;;;;5029868;28;19933;-74
2021/01/25 04:52:36;;;;;;;;;;;1.90;90.70;;;;;;5029283;28;20331;-75
2021/01/25 04:55:02;;;;;;;;;;;2.00;90.80;;;;;;5029869;28;20377;-75
2021/01/25 04:57:27;;;;;;;;;;;2.10;90.80;;;;;;5029554;28;19909;-74
2021/01/25 04:59:54;;;;;;;;;;;2.10;90.70;;;;;;5031323;28;19920;-74
2021/01/25 05:02:19;;;;;;;;;;;2.20;90.80;;;;;;5030125;28;19905;-74
2021/01/25 05:04:45;;;;;;;;;;;2.50;90.90;;;;;;5030098;28;19959;-74
2021/01/25 05:07:10;;;;;;;;;;;2.60;90.70;;;;;;5031493;28;19916;-74
2021/01/25 05:09:36;;;;;;;;;;;2.70;90.60;;;;;;5029417;28;19928;-74
2021/01/25 05:12:03;;;;;;;;;;;2.90;90.80;;;;;;4995688;28;19914;-74
2021/01/25 05:14:37;;;;;;;;;;;3.00;90.90;;;;;;5010807;28;19909;-75
2021/01/25 05:17:06;;;;;;;;;;;3.20;91.00;;;;;;5020602;28;19909;-74
2021/01/25 05:19:32;;;;;;;;;;;3.40;90.90;;;;;;5030249;28;19905;-74
2021/01/25 05:21:57;;;;;;;;;;;3.30;90.60;;;;;;5013630;28;19931;-74
2021/01/25 05:24:23;;;;;;;;;;;3.40;90.60;;;;;;5030925;28;20304;-74
2021/01/25 05:26:58;;;;;;;;;;;3.40;90.40;;;;;;5012777;28;20350;-75
2021/01/25 05:29:27;;;;;;;;;;;3.20;90.20;;;;;;5029328;28;19920;-75
2021/01/25 05:31:53;;;;;;;;;;;3.20;90.10;;;;;;5032199;28;19909;-74
2021/01/25 05:34:19;;;;;;;;;;;3.20;90.10;;;;;;5034816;28;20008;-76
2021/01/25 05:36:45;;;;;;;;;;;3.30;90.30;;;;;;5053990;28;19916;-75
2021/01/25 05:39:18;;;;;;;;;;;3.30;90.20;;;;;;5054332;28;19922;-77
2021/01/25 05:41:56;;;;;;;;;;;3.10;90.00;;;;;;5036151;28;19963;-75
2021/01/25 05:44:22;;;;;;;;;;;3.00;90.00;;;;;;5055396;28;19905;-75
2021/01/25 05:46:47;;;;;;;;;;;3.10;90.10;;;;;;5054126;28;20160;-75
2021/01/25 05:49:13;;;;;;;;;;;3.10;90.00;;;;;;5054121;28;19979;-76
2021/01/25 05:51:39;;;;;;;;;;;2.90;89.90;;;;;;5035699;28;19917;-75
2021/01/25 05:54:05;;;;;;;;;;;2.80;89.80;;;;;;5053430;28;20284;-75
2021/01/25 05:56:30;;;;;;;;;;;2.80;90.00;;;;;;5036375;28;19999;-83
2021/01/25 05:58:56;;;;;;;;;;;3.00;90.20;;;;;;5053476;28;20450;-75
2021/01/25 06:01:22;;;;;;;;;;;3.10;90.20;;;;;;5054415;28;19915;-76
2021/01/25 06:03:48;;;;;;;;;;;3.10;90.10;;;;;;5035596;28;19908;-75
2021/01/25 06:06:29;;;;;;;;;;;2.90;89.50;;;;;;5036027;28;20335;-74
2021/01/25 06:09:04;;;;;;;;;;;2.70;89.30;;;;;;5053118;28;19924;-76
2021/01/25 06:11:35;;;;;;;;;;;2.60;89.10;;;;;;5054044;28;20372;-74
2021/01/25 06:14:09;;;;;;;;;;;2.40;89.10;;;;;;5054826;28;19905;-75
2021/01/25 06:16:35;;;;;;;;;;;2.50;89.40;;;;;;5054191;28;19913;-79
2021/01/25 06:19:02;;;;;;;;;;;2.60;89.40;;;;;;5054208;28;19923;-75
2021/01/25 06:21:40;;;;;;;;;;;2.80;90.10;;;;;;5054267;28;19912;-74
2021/01/25 06:24:07;;;;;;;;;;;2.90;90.10;;;;;;5054046;28;19940;-74
2021/01/25 06:26:33;;;;;;;;;;;2.80;89.30;;;;;;5053907;28;19909;-74
2021/01/25 06:29:00;;;;;;;;;;;2.70;89.40;;;;;;5035005;28;20426;-74
2021/01/25 06:31:26;;;;;;;;;;;2.80;90.00;;;;;;5053798;28;20375;-74
2021/01/25 06:33:51;;;;;;;;;;;2.90;90.00;;;;;;5052995;28;19921;-74
2021/01/25 06:36:17;;;;;;;;;;;3.20;90.30;;;;;;5019129;28;19916;-75
2021/01/25 06:38:44;;;;;;;;;;;3.30;90.00;;;;;;5035057;28;19912;-74
2021/01/25 06:41:13;;;;;;;;;;;3.40;90.00;;;;;;5053821;28;19904;-74
2021/01/25 06:43:40;;;;;;;;;;;3.40;89.80;;;;;;5053169;28;19911;-79
2021/01/25 06:46:06;;;;;;;;;;;3.30;89.70;;;;;;5035215;28;19913;-74
2021/01/25 06:48:34;;;;;;;;;;;3.20;89.00;;;;;;5053667;28;20008;-74
2021/01/25 06:51:00;;;;;;;;;;;3.30;90.00;;;;;;5019265;28;19909;-74
2021/01/25 06:53:26;;;;;;;;;;;3.50;89.70;;;;;;5053200;28;19963;-74
2021/01/25 06:55:57;;;;;;;;;;;3.50;89.40;;;;;;5034799;28;19913;-74
2021/01/25 06:58:25;;;;;;;;;;;3.60;89.90;;;;;;5053582;28;19912;-73
2021/01/25 07:00:51;;;;;;;;;;;3.50;89.10;;;;;;5034188;28;19955;-73
2021/01/25 07:03:20;;;;;;;;;;;3.60;89.70;;;;;;5019920;28;19916;-74
2021/01/25 07:05:48;;;;;;;;;;;3.60;89.00;;;;;;5035405;28;19916;-74
2021/01/25 07:08:17;;;;;;;;;;;3.50;88.90;;;;;;5032843;28;20345;-74
2021/01/25 07:10:55;;;;;;;;;;;3.30;88.60;;;;;;5053764;28;19909;-81
2021/01/25 07:13:22;;;;;;;;;;;3.30;89.00;;;;;;5054085;28;19958;-74
2021/01/25 07:15:48;;;;;;;;;;;3.40;89.30;;;;;;5035926;28;19905;-75
2021/01/25 07:18:13;;;;;;;;;;;3.50;88.80;;;;;;5035188;28;19912;-74
2021/01/25 07:20:39;;;;;;;;;;;3.40;89.10;;;;;;5035971;28;19931;-74
2021/01/25 07:23:06;;;;;;;;;;;3.50;89.20;;;;;;5050841;28;19908;-73
2021/01/25 07:25:32;;;;;;;;;;;3.40;88.20;;;;;;5053627;28;19905;-74
2021/01/25 07:28:03;;;;;;;;;;;3.40;88.20;;;;;;5033799;28;19912;-74
2021/01/25 07:30:30;;;;;;;;;;;3.20;87.80;;;;;;5022434;28;20383;-74
2021/01/25 07:32:56;;;;;;;;;;;3.00;87.50;;;;;;5053632;28;20015;-73
2021/01/25 07:35:27;;;;;;;;;;;2.90;88.20;;;;;;5037102;28;20039;-73
2021/01/25 07:37:52;;;;;;;;;;;3.00;89.10;;;;;;5036768;28;19923;-75
2021/01/25 07:40:18;;;;;;;;;;;3.00;88.80;;;;;;5056861;28;19908;-73
2021/01/25 07:42:44;;;;;;;;;;;3.10;88.90;;;;;;5055699;28;19999;-81
2021/01/25 07:45:10;;;;;;;;;;;3.30;89.00;;;;;;5055130;28;19989;-74
2021/01/25 07:47:35;;;;;;;;;;;3.30;88.80;;;;;;5055593;28;20361;-75
2021/01/25 07:50:08;;;;;;;;;;;3.20;88.20;;;;;;5058744;28;19927;-73
2021/01/25 07:52:33;;;;;;;;;;;3.20;88.60;;;;;;5059392;28;20280;-73
2021/01/25 07:55:09;;;;;;;;;;;3.50;89.50;;;;;;5058684;28;19955;-73
2021/01/25 07:57:34;;;;;;;;;;;3.70;89.80;;;;;;5059309;28;19916;-75
2021/01/25 08:00:00;;;;;;;;;;;3.70;89.40;;;;;;5042862;28;19912;-77
2021/01/25 08:02:26;;;;;;;;;;;3.90;89.40;;;;;;5043310;28;19917;-75
2021/01/25 08:04:52;;;;;;;;;;;4.00;89.20;;;;;;5060417;28;19904;-74
2021/01/25 08:07:18;;;;;;;;;;;4.00;89.10;;;;;;5062587;28;19928;-74
2021/01/25 08:09:44;;;;;;;;;;;4.00;88.90;;;;;;5044666;28;19943;-76
2021/01/25 08:12:10;;;;;;;;;;;4.00;88.60;;;;;;5057383;28;19904;-76
2021/01/25 08:14:39;;;;;;;;;;;4.10;89.10;;;;;;5035068;28;19915;-75
2021/01/25 08:17:06;;;;;;;;;;;4.20;89.10;;;;;;5035276;28;19958;-75
2021/01/25 08:19:35;;;;;;;;;;;4.20;88.20;;;;;;5053012;28;19924;-75
2021/01/25 08:22:03;;;;;;;;;;;4.30;88.60;;;;;;5033815;28;19905;-77
2021/01/25 08:24:29;;;;;;;;;;;4.20;88.40;;;;;;5052463;28;19996;-76
2021/01/25 08:27:03;;;;;;;;;;;4.30;88.30;;;;;;5051453;28;20383;-74
2021/01/25 08:29:29;;;;;;;;;;;4.30;88.20;;;;;;5051696;28;20419;-74
2021/01/25 08:31:54;;;;;;;;;;;4.40;88.20;;;;;;5034122;28;19917;-75
2021/01/25 08:34:23;;;;;;;;;;;4.40;87.50;;;;;;5052606;28;19909;-75
2021/01/25 08:37:15;;;;;;;;;;;4.40;87.60;;;;;;5033795;28;19943;-74
2021/01/25 08:39:44;;;;;;;;;;;4.40;87.50;;;;;;5030180;28;19944;-76
2021/01/25 08:42:15;;;;;;;;;;;4.30;87.00;;;;;;5051523;28;19900;-76
2021/01/25 08:44:42;;;;;;;;;;;4.30;87.20;;;;;;5029808;28;19909;-76
2021/01/25 08:47:08;;;;;;;;;;;4.40;87.20;;;;;;5033569;28;19905;-75
2021/01/25 08:49:35;;;;;;;;;;;4.40;86.60;;;;;;5033476;28;19996;-76
2021/01/25 08:52:09;;;;;;;;;;;4.50;86.60;;;;;;5051542;28;19909;-76
2021/01/25 08:54:39;;;;;;;;;;;4.60;87.10;;;;;;5051900;28;19909;-76
2021/01/25 08:57:28;;;;;;;;;;;4.60;86.30;;;;;;5033605;28;19912;-76
2021/01/25 08:59:53;;;;;;;;;;;4.70;86.70;;;;;;5050559;28;19966;-86
2021/01/25 09:02:19;;;;;;;;;;;4.80;87.20;;;;;;5033016;28;19913;-76
2021/01/25 09:04:45;;;;;;;;;;;5.10;87.60;;;;;;5049280;28;20284;-83
2021/01/25 09:07:17;;;;;;;;;;;5.20;86.60;;;;;;5047882;28;19928;-76
2021/01/25 09:09:43;;;;;;;;;;;5.20;85.50;;;;;;5036662;28;19921;-76
2021/01/25 09:12:09;;;;;;;;;;;5.30;85.40;;;;;;5021528;28;19932;-77
2021/01/25 09:14:35;;;;;;;;;;;5.00;82.90;;;;;;5053590;28;19917;-77
2021/01/25 09:17:00;;;;;;;;;;;5.20;84.30;;;;;;5036125;28;19928;-77
2021/01/25 09:19:26;;;;;;;;;;;5.30;83.10;;;;;;5059947;28;19920;-77
2021/01/25 09:21:51;;;;;;;;;;;5.30;83.00;;;;;;5037945;28;19951;-77
2021/01/25 09:24:17;;;;;;;;;;;5.40;82.80;;;;;;5055519;28;20019;-76
2021/01/25 09:26:42;;;;;;;;;;;5.40;82.30;;;;;;5038627;28;19991;-77
2021/01/25 09:29:08;;;;;;;;;;;5.40;81.90;;;;;;5037054;28;19913;-77
2021/01/25 09:31:33;;;;;;;;;;;5.40;80.60;;;;;;5037768;28;20402;-78
2021/01/25 09:33:59;;;;;;;;;;;5.30;81.40;;;;;;5033299;28;19924;-77
2021/01/25 09:36:24;;;;;;;;;;;5.30;81.40;;;;;;5034181;28;19967;-77
2021/01/25 09:38:50;;;;;;;;;;;5.30;80.70;;;;;;5033658;28;19920;-78
2021/01/25 09:41:16;;;;;;;;;;;5.10;80.20;;;;;;5035274;28;20361;-77
2021/01/25 09:43:42;;;;;;;;;;;5.10;81.30;;;;;;5035966;28;20280;-77
2021/01/25 09:46:07;;;;;;;;;;;5.20;81.40;;;;;;5033631;28;19905;-77
2021/01/25 09:48:33;;;;;;;;;;;5.30;80.90;;;;;;5035272;28;19909;-77
2021/01/25 09:50:59;;;;;;;;;;;5.60;81.00;;;;;;5032941;28;19909;-81
2021/01/25 09:53:24;;;;;;;;;;;6.20;81.80;;;;;;5031881;28;19909;-78
2021/01/25 09:55:50;;;;;;;;;;;6.90;80.10;;;;;;5035058;28;19905;-77
2021/01/25 09:58:16;;;;;;;;;;;7.60;77.20;;;;;;5033330;28;20007;-75
2021/01/25 10:00:41;;;;;;;;;;;8.20;76.20;;;;;;5034315;28;19913;-75
2021/01/25 10:03:08;;;;;;;;;;;8.90;73.40;;;;;;5012809;28;20273;-77
2021/01/25 10:05:34;;;;;;;;;;;9.30;71.30;;;;;;5033709;28;19924;-75
2021/01/25 10:08:00;;;;;;;;;;;9.50;69.80;;;;;;5032109;28;20276;-83
2021/01/25 10:10:27;;;;;;;;;;;9.50;69.20;;;;;;5033391;28;19970;-75
2021/01/25 10:12:52;;;;;;;;;;;9.50;68.90;;;;;;5033602;28;19943;-75
2021/01/25 10:15:18;;;;;;;;;;;9.20;68.20;;;;;;5031581;28;20744;-74
2021/01/25 10:17:44;;;;;;;;;;;8.90;68.10;;;;;;5032743;28;20016;-76
2021/01/25 10:20:11;;;;;;;;;;;8.60;68.40;;;;;;5036062;28;19944;-75
2021/01/25 10:22:37;;;;;;;;;;;8.60;69.20;;;;;;5031305;28;20324;-75
2021/01/25 10:25:03;;;;;;;;;;;8.70;68.50;;;;;;5015732;28;19963;-82
2021/01/25 10:27:28;;;;;;;;;;;8.80;68.30;;;;;;5034694;28;19913;-75
2021/01/25 10:29:54;;;;;;;;;;;8.80;67.60;;;;;;5029042;28;20365;-74
2021/01/25 10:32:21;;;;;;;;;;;8.90;67.30;;;;;;5031121;28;19917;-75
2021/01/25 10:34:46;;;;;;;;;;;9.00;67.30;;;;;;5034995;28;19960;-74
2021/01/25 10:37:12;;;;;;;;;;;9.30;67.60;;;;;;5051527;28;19952;-74
2021/01/25 10:39:37;;;;;;;;;;;9.90;67.30;;;;;;5054820;28;20311;-74
2021/01/25 10:42:03;;;;;;;;;;;10.50;66.50;;;;;;5054994;28;20349;-80
2021/01/25 10:44:29;;;;;;;;;;;10.60;64.00;;;;;;5047294;28;19906;-75
2021/01/25 10:46:54;;;;;;;;;;;10.70;64.10;;;;;;5041049;28;19913;-75
2021/01/25 10:49:20;;;;;;;;;;;10.80;62.90;;;;;;5036035;28;19913;-75
2021/01/25 10:51:45;;;;;;;;;;;10.70;62.70;;;;;;5054589;28;20020;-75
2021/01/25 10:54:11;;;;;;;;;;;10.70;62.50;;;;;;5054856;28;20349;-75
2021/01/25 10:56:36;;;;;;;;;;;10.70;62.90;;;;;;5020903;28;20372;-75
2021/01/25 10:59:02;;;;;;;;;;;10.60;63.40;;;;;;5054882;28;19912;-75
2021/01/25 11:01:27;;;;;;;;;;;10.60;63.10;;;;;;5035971;28;20353;-76
2021/01/25 11:03:53;;;;;;;;;;;10.50;63.20;;;;;;5020239;28;19909;-76
2021/01/25 11:06:19;;;;;;;;;;;10.40;63.20;;;;;;5039085;28;19909;-76
2021/01/25 11:08:45;;;;;;;;;;;10.20;63.30;;;;;;5053237;28;19924;-76
2021/01/25 11:11:10;;;;;;;;;;;10.10;63.60;;;;;;5035596;28;20375;-76
2021/01/25 11:13:37;;;;;;;;;;;10.00;63.50;;;;;;5054136;28;19986;-76
2021/01/25 11:16:02;;;;;;;;;;;9.80;63.90;;;;;;5055257;28;19904;-76
2021/01/25 11:18:28;;;;;;;;;;;9.90;63.40;;;;;;5034508;28;20000;-75
2021/01/25 11:20:55;;;;;;;;;;;9.90;63.90;;;;;;5036254;28;19978;-76
2021/01/25 11:23:20;;;;;;;;;;;9.90;63.60;;;;;;5036103;28;19909;-75
2021/01/25 11:25:46;;;;;;;;;;;9.80;63.20;;;;;;5035412;28;19954;-77
2021/01/25 11:28:12;;;;;;;;;;;9.70;63.90;;;;;;5016492;28;19931;-82
2021/01/25 11:30:37;;;;;;;;;;;9.60;62.70;;;;;;5032608;28;20357;-76
2021/01/25 11:33:03;;;;;;;;;;;9.60;63.50;;;;;;5046992;28;19964;-76
2021/01/25 11:35:28;;;;;;;;;;;9.60;63.30;;;;;;5031891;28;20506;-76
2021/01/25 11:37:54;;;;;;;;;;;9.60;63.10;;;;;;5033416;28;19925;-76
2021/01/25 11:40:19;;;;;;;;;;;9.50;63.60;;;;;;5032206;28;19963;-76
2021/01/25 11:42:45;;;;;;;;;;;9.50;63.30;;;;;;5037903;28;19948;-75
2021/01/25 11:45:11;;;;;;;;;;;9.40;63.80;;;;;;5046547;28;19920;-82
2021/01/25 11:47:36;;;;;;;;;;;9.50;64.20;;;;;;5031700;28;20318;-75
2021/01/25 11:50:02;;;;;;;;;;;9.50;63.80;;;;;;5032423;28;19917;-76
2021/01/25 11:52:28;;;;;;;;;;;9.50;63.60;;;;;;5015900;28;19921;-76
2021/01/25 11:54:54;;;;;;;;;;;9.40;65.20;;;;;;5016281;28;20533;-75
2021/01/25 11:57:19;;;;;;;;;;;9.70;66.70;;;;;;5031953;28;19959;-76
2021/01/25 11:59:46;;;;;;;;;;;9.90;65.30;;;;;;5015039;28;20314;-74
2021/01/25 12:02:11;;;;;;;;;;;9.90;65.60;;;;;;5031726;28;19909;-75
2021/01/25 12:04:37;;;;;;;;;;;10.00;64.20;;;;;;5032362;28;19909;-75
2021/01/25 12:07:02;;;;;;;;;;;9.80;63.90;;;;;;5034277;28;19912;-74
2021/01/25 12:09:28;;;;;;;;;;;9.80;64.60;;;;;;5032395;28;19971;-75
2021/01/25 12:11:53;;;;;;;;;;;9.70;64.70;;;;;;5033070;28;19909;-76
2021/01/25 12:14:19;;;;;;;;;;;9.60;63.80;;;;;;5016087;28;19916;-76
2021/01/25 12:16:44;;;;;;;;;;;9.50;63.50;;;;;;5033361;28;19909;-76
2021/01/25 12:19:10;;;;;;;;;;;9.30;63.70;;;;;;5031252;28;20334;-75
2021/01/25 12:21:36;;;;;;;;;;;9.30;63.80;;;;;;5032702;28;19917;-76
2021/01/25 12:24:03;;;;;;;;;;;9.20;63.90;;;;;;5033114;28;19999;-76
2021/01/25 12:26:29;;;;;;;;;;;9.10;64.00;;;;;;5032781;28;19909;-76
2021/01/25 12:28:54;;;;;;;;;;;8.90;64.00;;;;;;5032425;28;19916;-76
2021/01/25 12:31:20;;;;;;;;;;;8.90;65.10;;;;;;5031780;28;19916;-76
2021/01/25 12:33:45;;;;;;;;;;;8.90;65.50;;;;;;5007123;28;19921;-76
2021/01/25 12:36:11;;;;;;;;;;;8.90;65.20;;;;;;5012889;28;19917;-76
2021/01/25 12:38:37;;;;;;;;;;;8.80;64.80;;;;;;5011312;28;20007;-75
2021/01/25 12:41:02;;;;;;;;;;;8.80;64.50;;;;;;5017304;28;19914;-75
2021/01/25 12:43:28;;;;;;;;;;;8.70;64.20;;;;;;5011303;28;19913;-75
2021/01/25 12:45:53;;;;;;;;;;;8.60;64.50;;;;;;5022286;28;20446;-76
2021/01/25 12:48:19;;;;;;;;;;;8.60;65.00;;;;;;5031742;28;20353;-75
2021/01/25 12:50:45;;;;;;;;;;;8.60;65.50;;;;;;5023151;28;19917;-75
2021/01/25 12:53:11;;;;;;;;;;;8.60;64.90;;;;;;5009331;28;19960;-75
2021/01/25 12:55:37;;;;;;;;;;;8.50;65.10;;;;;;5012188;28;19953;-75
2021/01/25 12:58:02;;;;;;;;;;;8.40;64.30;;;;;;4995970;28;20320;-75
2021/01/25 13:00:28;;;;;;;;;;;8.20;64.30;;;;;;5013267;28;19906;-75
2021/01/25 13:02:54;;;;;;;;;;;8.00;64.80;;;;;;5013422;28;19960;-75
2021/01/25 13:05:20;;;;;;;;;;;8.00;65.30;;;;;;5012468;28;19910;-76
2021/01/25 13:07:45;;;;;;;;;;;8.00;66.30;;;;;;5012167;28;19956;-74
2021/01/25 13:10:13;;;;;;;;;;;8.00;66.20;;;;;;5011654;28;19925;-76
2021/01/25 13:12:39;;;;;;;;;;;8.00;66.20;;;;;;5014283;28;20388;-75
2021/01/25 13:15:07;;;;;;;;;;;8.10;67.00;;;;;;5012142;28;20055;-74
2021/01/25 13:17:32;;;;;;;;;;;8.10;66.80;;;;;;5012618;28;19992;-74
2021/01/25 13:19:58;;;;;;;;;;;8.20;66.60;;;;;;5011267;28;20004;-75
2021/01/25 13:22:23;;;;;;;;;;;8.20;66.30;;;;;;5011292;28;20276;-78
2021/01/25 13:24:49;;;;;;;;;;;8.20;66.40;;;;;;5012534;28;19905;-75
2021/01/25 13:27:14;;;;;;;;;;;8.10;65.80;;;;;;4995688;28;19914;-74
2021/01/25 13:29:40;;;;;;;;;;;8.00;65.70;;;;;;5012586;28;19913;-74
2021/01/25 13:32:05;;;;;;;;;;;8.00;65.90;;;;;;5014582;28;20438;-74
2021/01/25 13:34:31;;;;;;;;;;;7.90;66.10;;;;;;5030882;28;19913;-74
2021/01/25 13:36:56;;;;;;;;;;;7.90;65.60;;;;;;5030914;28;20348;-74
2021/01/25 13:39:22;;;;;;;;;;;7.80;65.70;;;;;;5030541;28;19917;-80
2021/01/25 13:41:47;;;;;;;;;;;7.80;66.40;;;;;;5014111;28;19909;-74
2021/01/25 13:44:13;;;;;;;;;;;7.70;66.40;;;;;;5030953;28;20308;-74
2021/01/25 13:46:38;;;;;;;;;;;7.70;66.20;;;;;;5015353;28;19978;-74
2021/01/25 13:49:04;;;;;;;;;;;7.70;66.10;;;;;;5031695;28;20370;-74
2021/01/25 13:51:29;;;;;;;;;;;7.60;66.40;;;;;;5030214;28;19913;-74
2021/01/25 13:53:55;;;;;;;;;;;7.60;66.20;;;;;;5031617;28;19994;-74
2021/01/25 13:56:20;;;;;;;;;;;7.50;66.80;;;;;;5034944;28;19956;-74
2021/01/25 13:58:46;;;;;;;;;;;7.50;67.10;;;;;;5033528;28;19909;-75
2021/01/25 14:01:11;;;;;;;;;;;7.50;67.30;;;;;;5035557;28;19920;-74
2021/01/25 14:03:37;;;;;;;;;;;7.50;67.00;;;;;;5033719;28;20314;-75
2021/01/25 14:06:04;;;;;;;;;;;7.50;67.20;;;;;;5018695;28;19909;-74
2021/01/25 14:08:30;;;;;;;;;;;7.40;67.20;;;;;;5034764;28;20350;-76
2021/01/25 14:10:56;;;;;;;;;;;7.40;67.90;;;;;;5018405;28;19916;-75
2021/01/25 14:13:21;;;;;;;;;;;7.40;67.50;;;;;;5033783;28;20326;-75
2021/01/25 14:15:47;;;;;;;;;;;7.40;67.60;;;;;;5034353;28;19931;-74
2021/01/25 14:18:13;;;;;;;;;;;7.40;67.50;;;;;;5035011;28;19991;-75
2021/01/25 14:20:39;;;;;;;;;;;7.30;66.70;;;;;;5032827;28;20388;-75
2021/01/25 14:23:04;;;;;;;;;;;7.20;68.00;;;;;;5033237;28;19913;-76